createdAt,value
2022-11-07T00:00:50.031Z,100241.84
2022-11-07T00:03:17.304Z,100246.34
2022-11-07T00:05:44.130Z,100242.69
2022-11-07T00:08:10.736Z,100246.94
2022-11-07T00:10:37.367Z,100242.94
2022-11-07T00:13:04.014Z,100246.34
2022-11-07T00:15:30.569Z,100250.03
2022-11-07T00:17:58.402Z,100251.72
2022-11-07T00:20:25.050Z,100247.22
2022-11-07T00:22:51.613Z,100246.34
2022-11-07T00:25:18.198Z,100243.50
2022-11-07T00:27:44.850Z,100242.41
2022-11-07T00:30:12.502Z,100257.69
2022-11-07T00:32:39.089Z,100249.47
2022-11-07T00:35:06.054Z,100253.16
2022-11-07T00:37:33.182Z,100250.47
2022-11-07T00:39:59.800Z,100249.47
2022-11-07T00:42:26.369Z,100252.16
2022-11-07T00:44:52.980Z,100251.16
2022-11-07T00:47:19.595Z,100251.16
2022-11-07T00:49:46.413Z,100252.88
2022-11-07T00:52:12.960Z,100246.66
2022-11-07T00:54:39.531Z,100247.50
2022-11-07T00:57:06.113Z,100244.81
2022-11-07T00:59:32.728Z,100242.97
2022-11-07T01:01:59.492Z,100249.19
2022-11-07T01:04:44.618Z,100253.44
2022-11-07T01:07:11.283Z,100248.91
2022-11-07T01:09:38.055Z,100256.25
2022-11-07T01:12:05.899Z,100256.25
2022-11-07T01:14:32.550Z,100252.88
2022-11-07T01:16:59.148Z,100252.31
2022-11-07T01:19:25.727Z,100258.66
2022-11-07T01:21:52.341Z,100251.75
2022-11-07T01:24:19.146Z,100246.94
2022-11-07T01:26:49.114Z,100253.16
2022-11-07T01:29:17.498Z,100246.66
2022-11-07T01:31:44.201Z,100243.13
2022-11-07T01:34:11.000Z,100244.09
2022-11-07T01:36:37.654Z,100250.59
2022-11-07T01:39:04.913Z,100255.13
2022-11-07T01:41:34.620Z,100245.50
2022-11-07T01:44:07.121Z,100249.75
2022-11-07T01:46:37.462Z,100244.38
2022-11-07T01:49:10.399Z,100250.47
2022-11-07T01:51:43.952Z,100247.78
2022-11-07T01:54:13.322Z,100251.44
2022-11-07T01:56:42.998Z,100251.44
2022-11-07T01:59:12.047Z,100244.09
2022-11-07T02:01:38.890Z,100246.06
2022-11-07T02:04:06.460Z,100245.22
2022-11-07T02:06:54.504Z,100240.69
2022-11-07T02:09:21.444Z,100248.31
2022-11-07T02:11:48.349Z,100242.94
2022-11-07T02:14:16.614Z,100249.31
2022-11-07T02:16:43.629Z,100249.31
2022-11-07T02:19:38.156Z,100247.06
2022-11-07T02:22:32.162Z,100242.41
2022-11-07T02:25:01.342Z,100254.13
2022-11-07T02:27:31.073Z,100247.50
2022-11-07T02:30:25.932Z,100252.03
2022-11-07T02:32:53.447Z,100250.59
2022-11-07T02:35:35.019Z,100251.44
2022-11-07T02:38:05.657Z,100251.00
2022-11-07T02:40:32.855Z,100251.16
2022-11-07T02:43:00.272Z,100252.00
2022-11-07T02:45:29.828Z,100250.88
2022-11-07T02:47:56.438Z,100246.63
2022-11-07T02:50:23.117Z,100246.34
2022-11-07T02:52:49.763Z,100248.31
2022-11-07T02:55:17.062Z,100252.88
2022-11-07T02:57:43.715Z,100244.66
2022-11-07T03:00:12.651Z,100249.03
2022-11-07T03:02:39.527Z,100250.88
2022-11-07T03:05:06.675Z,100242.69
2022-11-07T03:07:33.693Z,100237.56
2022-11-07T03:10:00.251Z,100233.63
2022-11-07T03:12:26.859Z,100230.22
2022-11-07T03:14:53.495Z,100224.56
2022-11-07T03:17:20.126Z,100226.69
2022-11-07T03:19:46.764Z,100211.31
2022-11-07T03:22:13.494Z,100220.91
2022-11-07T03:24:40.106Z,100230.53
2022-11-07T03:27:06.740Z,100220.47
2022-11-07T03:29:33.390Z,100227.56
2022-11-07T03:31:59.990Z,100228.25
2022-11-07T03:34:26.532Z,100222.03
2022-11-07T03:36:53.189Z,100226.31
2022-11-07T03:39:25.469Z,100233.63
2022-11-07T03:41:52.493Z,100235.63
2022-11-07T03:44:19.138Z,100238.44
2022-11-07T03:46:45.827Z,100241.00
2022-11-07T03:49:12.405Z,100235.34
2022-11-07T03:51:39.013Z,100240.72
2022-11-07T03:54:05.645Z,100240.44
2022-11-07T03:56:32.224Z,100226.84
2022-11-07T03:58:58.840Z,100225.75
2022-11-07T04:01:25.603Z,100232.78
2022-11-07T04:03:56.098Z,100233.66
2022-11-07T04:06:23.516Z,100231.13
2022-11-07T04:08:50.215Z,100241.59
2022-11-07T04:11:35.367Z,100238.75
2022-11-07T04:14:20.443Z,100237.59
2022-11-07T04:17:05.942Z,100240.28
2022-11-07T04:19:32.524Z,100237.59
2022-11-07T04:21:59.057Z,100235.66
2022-11-07T04:24:25.613Z,100237.31
2022-11-07T04:27:10.902Z,100240.72
2022-11-07T04:29:37.433Z,100233.66
2022-11-07T04:32:04.151Z,100234.34
2022-11-07T04:34:31.029Z,100228.28
2022-11-07T04:36:57.649Z,100238.03
2022-11-07T04:39:24.224Z,100240.44
2022-11-07T04:41:50.826Z,100243.84
2022-11-07T04:44:17.364Z,100242.13
2022-11-07T04:46:43.997Z,100236.75
2022-11-07T04:49:10.609Z,100235.91
2022-11-07T04:51:42.293Z,100240.88
2022-11-07T04:54:15.589Z,100249.22
2022-11-07T04:56:42.293Z,100244.13
2022-11-07T04:59:09.172Z,100246.66
2022-11-07T05:01:35.897Z,100248.53
2022-11-07T05:04:02.561Z,100251.22
2022-11-07T05:06:29.632Z,100256.59
2022-11-07T05:08:56.298Z,100254.88
2022-11-07T05:11:22.874Z,100256.59
2022-11-07T05:13:49.410Z,100269.03
2022-11-07T05:16:19.751Z,100271.28
2022-11-07T05:18:46.436Z,100272.41
2022-11-07T05:21:13.119Z,100264.34
2022-11-07T05:23:39.753Z,100267.75
2022-11-07T05:26:06.370Z,100266.75
2022-11-07T05:28:38.627Z,100271.84
2022-11-07T05:31:06.339Z,100271.84
2022-11-07T05:33:33.360Z,100279.22
2022-11-07T05:36:17.814Z,100278.94
2022-11-07T05:38:47.856Z,100284.31
2022-11-07T05:41:16.191Z,100282.31
2022-11-07T05:43:43.602Z,100285.16
2022-11-07T05:46:10.654Z,100286.03
2022-11-07T05:48:37.639Z,100283.19
2022-11-07T05:51:05.676Z,100291.13
2022-11-07T05:53:32.754Z,100285.72
2022-11-07T05:55:59.548Z,100292.78
2022-11-07T05:58:26.268Z,100301.59
2022-11-07T06:00:52.870Z,100297.88
2022-11-07T06:03:22.780Z,100303.25
2022-11-07T06:05:49.479Z,100302.28
2022-11-07T06:08:16.178Z,100312.06
2022-11-07T06:10:44.017Z,100312.06
2022-11-07T06:13:14.090Z,100317.16
2022-11-07T06:15:41.446Z,100318.84
2022-11-07T06:18:13.575Z,100322.97
2022-11-07T06:20:40.426Z,100327.34
2022-11-07T06:23:07.255Z,100321.69
2022-11-07T06:25:35.288Z,100342.25
2022-11-07T06:28:10.909Z,100332.19
2022-11-07T06:30:37.776Z,100342.09
2022-11-07T06:33:11.291Z,100339.25
2022-11-07T06:35:38.159Z,100338.97
2022-11-07T06:38:06.932Z,100340.41
2022-11-07T06:40:33.595Z,100358.25
2022-11-07T06:43:15.569Z,100360.53
2022-11-07T06:45:43.755Z,100366.75
2022-11-07T06:48:10.862Z,100370.13
2022-11-07T06:50:38.230Z,100377.22
2022-11-07T06:53:10.754Z,100373.56
2022-11-07T06:55:38.603Z,100374.41
2022-11-07T06:58:05.759Z,100371.56
2022-11-07T07:00:34.715Z,100374.94
2022-11-07T07:03:01.659Z,100371.28
2022-11-07T07:05:28.358Z,100371.81
2022-11-07T07:07:55.848Z,100374.38
2022-11-07T07:10:24.864Z,100377.75
2022-11-07T07:12:52.300Z,100380.31
2022-11-07T07:15:19.069Z,100376.66
2022-11-07T07:17:45.675Z,100369.25
2022-11-07T07:20:12.411Z,100373.53
2022-11-07T07:22:39.112Z,100380.63
2022-11-07T07:25:06.224Z,100385.72
2022-11-07T07:27:32.842Z,100382.28
2022-11-07T07:29:59.470Z,100374.22
2022-11-07T07:32:26.069Z,100376.63
2022-11-07T07:34:52.812Z,100378.34
2022-11-07T07:37:19.464Z,100379.03
2022-11-07T07:39:46.234Z,100375.91
2022-11-07T07:42:12.909Z,100374.06
2022-11-07T07:44:39.614Z,100371.38
2022-11-07T07:47:11.063Z,100371.78
2022-11-07T07:49:38.716Z,100377.47
2022-11-07T07:52:05.989Z,100380.56
2022-11-07T07:54:32.612Z,100384.72
2022-11-07T07:56:59.263Z,100384.56
2022-11-07T07:59:26.022Z,100380.56
2022-11-07T08:01:56.842Z,100383.97
2022-11-07T08:04:24.159Z,100385.38
2022-11-07T08:06:50.826Z,100384.53
2022-11-07T08:09:17.467Z,100384.38
2022-11-07T08:11:44.068Z,100397.84
2022-11-07T08:14:11.635Z,100391.50
2022-11-07T08:16:38.418Z,100398.25
2022-11-07T08:19:05.204Z,100395.56
2022-11-07T08:21:31.981Z,100399.56
2022-11-07T08:23:58.686Z,100401.25
2022-11-07T08:26:26.221Z,100404.66
2022-11-07T08:28:54.162Z,100407.34
2022-11-07T08:31:21.123Z,100402.38
2022-11-07T08:33:47.774Z,100403.66
2022-11-07T08:36:14.723Z,100408.59
2022-11-07T08:38:41.364Z,100393.84
2022-11-07T08:41:08.206Z,100404.19
2022-11-07T08:43:35.166Z,100406.31
2022-11-07T08:46:01.912Z,100406.72
2022-11-07T08:48:28.647Z,100417.47
2022-11-07T08:50:56.993Z,100411.69
2022-11-07T08:53:25.670Z,100410.00
2022-11-07T08:55:52.504Z,100417.09
2022-11-07T08:58:19.832Z,100413.38
2022-11-07T09:00:46.621Z,100409.69
2022-11-07T09:06:01.087Z,100417.88
2022-11-07T09:08:30.253Z,100422.69
2022-11-07T09:11:01.272Z,100412.19
2022-11-07T09:13:28.227Z,100420.72
2022-11-07T09:16:02.587Z,100424.81
2022-11-07T09:18:29.769Z,100420.13
2022-11-07T09:20:57.565Z,100429.50
2022-11-07T09:23:24.279Z,100431.78
2022-11-07T09:25:51.220Z,100436.16
2022-11-07T09:28:17.814Z,100433.75
2022-11-07T09:30:44.577Z,100437.47
2022-11-07T09:33:11.243Z,100439.44
2022-11-07T09:35:37.843Z,100437.78
2022-11-07T09:38:04.687Z,100434.78
2022-11-07T09:40:43.403Z,100443.75
2022-11-07T09:43:28.527Z,100445.13
2022-11-07T09:46:16.015Z,100442.13
2022-11-07T09:48:57.841Z,100443.16
2022-11-07T09:51:39.769Z,100444.84
2022-11-07T09:54:18.167Z,100436.88
2022-11-07T09:56:44.909Z,100440.53
2022-11-07T09:59:22.986Z,100439.09
2022-11-07T10:01:49.700Z,100442.78
2022-11-07T10:04:25.259Z,100437.69
2022-11-07T10:07:11.465Z,100435.72
2022-11-07T10:09:38.064Z,100431.72
2022-11-07T10:12:07.603Z,100441.91
2022-11-07T10:15:10.174Z,100443.03
2022-11-07T10:17:54.092Z,100445.72
2022-11-07T10:20:25.140Z,100441.59
2022-11-07T10:22:57.847Z,100439.91
2022-11-07T10:25:35.506Z,100435.38
2022-11-07T10:28:08.386Z,100440.31
2022-11-07T10:30:35.508Z,100439.00
2022-11-07T10:33:10.895Z,100432.31
2022-11-07T10:35:47.036Z,100440.41
2022-11-07T10:38:22.628Z,100426.94
2022-11-07T10:40:51.590Z,100435.03
2022-11-07T10:43:34.612Z,100427.63
2022-11-07T10:46:16.228Z,100423.63
2022-11-07T10:49:00.435Z,100425.06
2022-11-07T10:51:53.879Z,100432.41
2022-11-07T10:54:22.365Z,100434.81
2022-11-07T10:56:57.134Z,100426.56
2022-11-07T10:59:31.402Z,100430.66
2022-11-07T11:02:02.028Z,100431.03
2022-11-07T11:04:31.309Z,100421.66
2022-11-07T11:07:03.944Z,100411.22
2022-11-07T11:09:33.450Z,100416.63
2022-11-07T11:12:27.675Z,100422.91
2022-11-07T11:15:12.927Z,100424.88
2022-11-07T11:17:39.726Z,100424.03
2022-11-07T11:20:23.638Z,100418.66
2022-11-07T11:22:50.322Z,100415.94
2022-11-07T11:25:21.808Z,100422.03
2022-11-07T11:27:52.929Z,100423.72
2022-11-07T11:30:21.491Z,100417.19
2022-11-07T11:33:06.759Z,100418.03
2022-11-07T11:35:47.400Z,100410.94
2022-11-07T11:38:19.487Z,100404.38
2022-11-07T11:40:56.222Z,100407.25
2022-11-07T11:43:48.571Z,100401.00
2022-11-07T11:46:31.361Z,100409.56
2022-11-07T11:49:06.220Z,100415.41
2022-11-07T11:51:40.797Z,100405.75
2022-11-07T11:54:12.737Z,100405.38
2022-11-07T11:56:53.171Z,100407.84
2022-11-07T11:59:52.147Z,100403.19
2022-11-07T12:02:43.925Z,100402.03
2022-11-07T12:05:26.823Z,100398.78
2022-11-07T12:08:11.703Z,100396.63
2022-11-07T12:10:50.775Z,100393.78
2022-11-07T12:14:01.691Z,100406.28
2022-11-07T12:16:50.039Z,100407.41
2022-11-07T12:19:34.638Z,100398.78
2022-11-07T12:22:03.834Z,100399.78
2022-11-07T12:24:37.240Z,100397.50
2022-11-07T12:27:06.867Z,100404.59
2022-11-07T12:30:02.467Z,100402.97
2022-11-07T12:32:43.168Z,100402.97
2022-11-07T12:35:31.444Z,100409.78
2022-11-07T12:38:01.048Z,100411.94
2022-11-07T12:40:31.988Z,100403.84
2022-11-07T12:43:20.198Z,100398.84
2022-11-07T12:45:54.626Z,100400.47
2022-11-07T12:48:39.599Z,100399.94
2022-11-07T12:51:09.512Z,100406.22
2022-11-07T12:53:51.440Z,100406.75
2022-11-07T12:56:23.381Z,100404.06
2022-11-07T12:58:50.516Z,100399.66
2022-11-07T13:01:23.962Z,100401.34
2022-11-07T13:04:11.082Z,100393.97
2022-11-07T13:06:57.532Z,100391.25
2022-11-07T13:09:55.207Z,100390.44
2022-11-07T13:12:40.403Z,100390.56
2022-11-07T13:15:11.192Z,100388.88
2022-11-07T13:17:41.223Z,100388.47
2022-11-07T13:20:29.246Z,100385.47
2022-11-07T13:23:01.034Z,100384.88
2022-11-07T13:25:32.769Z,100384.88
2022-11-07T13:28:01.295Z,100386.84
2022-11-07T13:30:30.604Z,100390.28
2022-11-07T13:33:03.279Z,100392.25
2022-11-07T13:35:31.349Z,100385.19
2022-11-07T13:38:08.487Z,100390.72
2022-11-07T13:40:44.482Z,100393.41
2022-11-07T13:43:18.754Z,100382.50
2022-11-07T13:45:45.458Z,100390.88
2022-11-07T13:48:33.580Z,100392.88
2022-11-07T13:51:15.568Z,100399.16
2022-11-07T13:53:53.314Z,100403.44
2022-11-07T13:56:49.667Z,100409.00
2022-11-07T13:59:38.458Z,100408.56
2022-11-07T14:02:05.750Z,100404.50
2022-11-07T14:04:40.510Z,100400.38
2022-11-07T14:07:16.648Z,100407.47
2022-11-07T14:09:44.286Z,100399.25
2022-11-07T14:12:22.367Z,100408.31
2022-11-07T14:14:50.933Z,100409.16
2022-11-07T14:17:19.812Z,100408.47
2022-11-07T14:19:46.452Z,100418.53
2022-11-07T14:22:22.687Z,100414.56
2022-11-07T14:24:55.528Z,100416.72
2022-11-07T14:27:23.630Z,100422.66
2022-11-07T14:29:57.687Z,100413.47
2022-11-07T14:32:28.122Z,100418.28
2022-11-07T14:35:00.052Z,100415.44
2022-11-07T14:37:26.774Z,100420.72
2022-11-07T14:39:53.450Z,100414.59
2022-11-07T14:42:23.735Z,100422.25
2022-11-07T14:44:57.673Z,100412.19
2022-11-07T14:47:30.454Z,100424.53
2022-11-07T14:49:57.851Z,100421.41
2022-11-07T14:52:36.396Z,100426.78
2022-11-07T14:55:06.394Z,100423.97
2022-11-07T14:57:35.791Z,100422.28
2022-11-07T15:00:06.612Z,100428.50
2022-11-07T15:02:33.936Z,100424.09
2022-11-07T15:05:09.597Z,100424.09
2022-11-07T15:07:47.644Z,100431.47
2022-11-07T15:10:24.741Z,100437.56
2022-11-07T15:12:58.401Z,100432.47
2022-11-07T15:15:37.086Z,100418.03
2022-11-07T15:18:06.598Z,100417.75
2022-11-07T15:20:37.797Z,100425.81
2022-11-07T15:23:13.594Z,100421.69
2022-11-07T15:25:44.618Z,100425.97
2022-11-07T15:28:43.860Z,100419.97
2022-11-07T15:31:29.000Z,100421.13
2022-11-07T15:33:57.965Z,100419.53
2022-11-07T15:36:25.148Z,100423.06
2022-11-07T15:38:52.653Z,100420.25
2022-11-07T15:41:19.773Z,100423.69
2022-11-07T15:43:46.395Z,100417.44
2022-11-07T15:46:39.298Z,100424.53
2022-11-07T15:49:07.362Z,100425.88
2022-11-07T15:51:33.995Z,100424.22
2022-11-07T15:54:00.590Z,100432.97
2022-11-07T15:56:27.325Z,100427.59
2022-11-07T15:58:55.331Z,100426.38
2022-11-07T16:01:22.930Z,100438.13
2022-11-07T16:03:49.686Z,100436.66
2022-11-07T16:06:25.221Z,100443.75
2022-11-07T16:08:52.008Z,100445.00
2022-11-07T16:11:18.678Z,100451.13
2022-11-07T16:13:45.545Z,100452.78
2022-11-07T16:16:21.982Z,100449.13
2022-11-07T16:18:51.074Z,100457.34
2022-11-07T16:21:20.455Z,100458.19
2022-11-07T16:23:49.696Z,100458.19
2022-11-07T16:26:27.865Z,100463.84
2022-11-07T16:28:54.683Z,100460.72
2022-11-07T16:31:21.296Z,100471.47
2022-11-07T16:33:48.020Z,100464.09
2022-11-07T16:36:31.746Z,100479.97
2022-11-07T16:38:58.684Z,100474.03
2022-11-07T16:41:25.292Z,100471.19
2022-11-07T16:43:52.017Z,100478.56
2022-11-07T16:46:21.400Z,100476.59
2022-11-07T16:48:50.722Z,100470.22
2022-11-07T16:51:21.506Z,100470.22
2022-11-07T16:53:48.866Z,100476.59
2022-11-07T16:56:32.254Z,100480.25
2022-11-07T16:58:59.301Z,100483.41
2022-11-07T17:01:27.137Z,100475.59
2022-11-07T17:03:54.789Z,100485.34
2022-11-07T17:06:33.253Z,100481.69
2022-11-07T17:09:08.996Z,100481.69
2022-11-07T17:11:38.813Z,100494.16
2022-11-07T17:14:05.552Z,100487.91
2022-11-07T17:16:35.666Z,100485.09
2022-11-07T17:19:03.866Z,100486.78
2022-11-07T17:21:36.898Z,100496.84
2022-11-07T17:24:04.155Z,100501.78
2022-11-07T17:26:34.718Z,100503.50
2022-11-07T17:29:02.916Z,100506.31
2022-11-07T17:31:29.544Z,100491.28
2022-11-07T17:33:57.108Z,100498.38
2022-11-07T17:36:36.733Z,100499.81
2022-11-07T17:39:11.842Z,100506.19
2022-11-07T17:41:40.802Z,100501.50
2022-11-07T17:44:07.649Z,100510.59
2022-11-07T17:46:35.854Z,100508.16
2022-11-07T17:49:07.042Z,100515.97
2022-11-07T17:51:35.983Z,100518.38
2022-11-07T17:54:02.772Z,100519.63
2022-11-07T17:56:30.952Z,100506.88
2022-11-07T17:59:18.576Z,100511.97
2022-11-07T18:01:46.089Z,100516.66
2022-11-07T18:04:13.610Z,100513.00
2022-11-07T18:06:42.798Z,100522.75
2022-11-07T18:09:15.470Z,100513.69
2022-11-07T18:11:42.620Z,100515.69
2022-11-07T18:14:11.159Z,100512.25
2022-11-07T18:16:37.835Z,100516.66
2022-11-07T18:19:05.913Z,100507.63
2022-11-07T18:21:32.660Z,100512.25
2022-11-07T18:23:59.275Z,100508.88
2022-11-07T18:26:31.354Z,100508.88
2022-11-07T18:29:12.774Z,100509.56
2022-11-07T18:31:41.347Z,100513.69
2022-11-07T18:34:11.319Z,100509.97
2022-11-07T18:36:40.208Z,100509.41
2022-11-07T18:39:19.190Z,100516.50
2022-11-07T18:41:45.834Z,100510.25
2022-11-07T18:44:12.574Z,100514.66
2022-11-07T18:46:39.355Z,100512.09
2022-11-07T18:49:06.557Z,100520.44
2022-11-07T18:51:35.971Z,100519.19
2022-11-07T18:54:04.670Z,100514.78
2022-11-07T18:56:31.613Z,100509.41
2022-11-07T18:58:58.643Z,100511.13
2022-11-07T19:01:28.755Z,100511.13
2022-11-07T19:03:57.050Z,100512.25
2022-11-07T19:06:25.529Z,100516.03
2022-11-07T19:08:52.612Z,100524.84
2022-11-07T19:11:26.600Z,100521.88
2022-11-07T19:13:53.636Z,100515.34
2022-11-07T19:16:24.412Z,100528.34
2022-11-07T19:18:51.684Z,100519.28
2022-11-07T19:21:21.002Z,100514.16
2022-11-07T19:23:48.642Z,100515.88
2022-11-07T19:26:15.799Z,100516.16
2022-11-07T19:28:42.891Z,100518.72
2022-11-07T19:31:12.962Z,100521.25
2022-11-07T19:33:41.177Z,100529.16
2022-11-07T19:36:16.584Z,100518.94
2022-11-07T19:38:44.373Z,100518.94
2022-11-07T19:41:15.919Z,100527.19
2022-11-07T19:43:44.697Z,100530.00
2022-11-07T19:46:15.224Z,100541.63
2022-11-07T19:48:42.897Z,100541.03
2022-11-07T19:51:19.908Z,100536.53
2022-11-07T19:53:54.864Z,100540.19
2022-11-07T19:56:22.044Z,100537.78
2022-11-07T19:58:48.746Z,100542.44
2022-11-07T20:01:18.980Z,100547.56
2022-11-07T20:03:47.781Z,100541.91
2022-11-07T20:06:17.254Z,100539.91
2022-11-07T20:08:46.366Z,100549.41
2022-11-07T20:11:16.272Z,100551.38
2022-11-07T20:13:43.625Z,100558.03
2022-11-07T20:16:10.952Z,100552.94
2022-11-07T20:18:39.146Z,100554.59
2022-11-07T20:21:13.174Z,100560.00
2022-11-07T20:23:41.246Z,100557.16
2022-11-07T20:26:13.493Z,100556.59
2022-11-07T20:28:40.266Z,100559.53
2022-11-07T20:31:12.137Z,100560.00
2022-11-07T20:33:38.666Z,100567.09
2022-11-07T20:36:08.654Z,100564.13
2022-11-07T20:38:36.185Z,100565.09
2022-11-07T20:41:08.049Z,100558.03
2022-11-07T20:43:34.582Z,100571.91
2022-11-07T20:46:06.962Z,100561.69
2022-11-07T20:48:34.120Z,100564.66
2022-11-07T20:51:14.063Z,100570.63
2022-11-07T20:53:46.836Z,100561.97
2022-11-07T20:56:16.399Z,100567.63
2022-11-07T20:58:43.508Z,100574.97
2022-11-07T21:01:38.072Z,100569.59
2022-11-07T21:04:11.340Z,100571.28
2022-11-07T21:06:38.130Z,100562.38
2022-11-07T21:09:06.341Z,100563.47
2022-11-07T21:11:33.639Z,100566.16
2022-11-07T21:14:00.739Z,100565.91
2022-11-07T21:16:28.221Z,100560.47
2022-11-07T21:18:56.091Z,100557.66
2022-11-07T21:21:27.067Z,100566.44
2022-11-07T21:23:54.747Z,100561.31
2022-11-07T21:26:24.711Z,100562.19
2022-11-07T21:28:51.631Z,100565.00
2022-11-07T21:31:25.010Z,100562.78
2022-11-07T21:33:52.691Z,100560.78
2022-11-07T21:36:21.931Z,100564.22
2022-11-07T21:38:48.585Z,100565.00
2022-11-07T21:41:16.228Z,100560.25
2022-11-07T21:43:43.009Z,100565.63
2022-11-07T21:46:18.966Z,100563.69
2022-11-07T21:48:46.814Z,100556.59
2022-11-07T21:51:16.725Z,100559.69
2022-11-07T21:53:43.879Z,100560.53
2022-11-07T21:56:22.759Z,100560.53
2022-11-07T21:58:56.011Z,100560.25
2022-11-07T22:01:23.445Z,100556.41
2022-11-07T22:04:06.160Z,100557.34
2022-11-07T22:06:35.984Z,100558.19
2022-11-07T22:09:04.222Z,100553.06
2022-11-07T22:11:30.867Z,100559.44
2022-11-07T22:13:57.560Z,100552.38
2022-11-07T22:16:24.688Z,100551.63
2022-11-07T22:18:51.493Z,100549.69
2022-11-07T22:21:21.281Z,100542.59
2022-11-07T22:23:48.617Z,100553.06
2022-11-07T22:26:18.909Z,100554.78
2022-11-07T22:28:46.515Z,100558.19
2022-11-07T22:31:19.352Z,100559.16
2022-11-07T22:33:46.275Z,100561.59
2022-11-07T22:36:13.467Z,100561.84
2022-11-07T22:38:42.682Z,100552.81
2022-11-07T22:41:12.816Z,100552.69
2022-11-07T22:43:39.736Z,100559.91
2022-11-07T22:46:14.268Z,100554.25
2022-11-07T22:48:41.814Z,100554.25
2022-11-07T22:51:14.029Z,100564.75
2022-11-07T22:53:41.381Z,100561.44
2022-11-07T22:56:12.318Z,100557.94
2022-11-07T22:58:39.939Z,100557.66
2022-11-07T23:01:13.412Z,100566.69
2022-11-07T23:03:40.001Z,100561.59
2022-11-07T23:06:06.728Z,100565.16
2022-11-07T23:08:34.414Z,100566.13
2022-11-07T23:13:51.330Z,100567.09
2022-11-07T23:16:33.125Z,100559.63
2022-11-07T23:19:01.708Z,100560.88
2022-11-07T23:21:29.045Z,100565.28
2022-11-07T23:23:57.634Z,100560.88
2022-11-07T23:26:25.429Z,100566.13
2022-11-07T23:28:52.226Z,100568.94
2022-11-07T23:31:20.108Z,100571.63
2022-11-07T23:33:48.294Z,100560.16
2022-11-07T23:36:17.775Z,100570.91
2022-11-07T23:38:46.066Z,100568.94
2022-11-07T23:41:15.365Z,100557.59
2022-11-07T23:43:42.993Z,100565.53
2022-11-07T23:46:34.568Z,100563.56
2022-11-07T23:49:22.129Z,100563.56
2022-11-07T23:51:49.880Z,100560.16
2022-11-07T23:54:35.302Z,100561.41
2022-11-07T23:57:03.120Z,100565.06
2022-11-07T23:59:50.105Z,100571.19
